Time;durP1;ratioP1;P1;durP2;ratioP2;P2;SDS_P1;SDS_P2;PMS_P1;PMS_P2;Temp;Humidity;BMP_temperature;BMP_pressure;BME280_temperature;BME280_humidity;BME280_pressure;Samples;Min_cycle;Max_cycle;Signal;HPM_P1;HPM_P2
2022/01/22 00:00:21;;;;;;;12.70;7.63;;;6.30;99.90;;;;;;5077496;28;20388;-67
2022/01/22 00:02:48;;;;;;;14.50;8.00;;;6.30;99.90;;;;;;5077227;28;20422;-67
2022/01/22 00:05:15;;;;;;;13.18;8.00;;;6.30;99.90;;;;;;5060494;28;20036;-68
2022/01/22 00:07:41;;;;;;;12.32;7.20;;;6.30;99.90;;;;;;5077079;28;20033;-66
2022/01/22 00:10:14;;;;;;;12.32;7.53;;;6.40;99.90;;;;;;5077072;28;20082;-67
2022/01/22 00:15:19;;;;;;;13.07;7.50;;;6.20;99.90;;;;;;5077111;28;20208;-67
2022/01/22 00:17:46;;;;;;;11.68;7.53;;;6.20;99.90;;;;;;5076876;28;20070;-67
2022/01/22 00:20:14;;;;;;;14.25;7.75;;;6.20;99.90;;;;;;5076561;28;20502;-66
2022/01/22 00:22:42;;;;;;;13.25;7.88;;;6.40;99.90;;;;;;5076876;28;20056;-66
2022/01/22 00:25:09;;;;;;;17.85;8.07;;;6.50;99.90;;;;;;5076058;28;20047;-66
2022/01/22 00:27:39;;;;;;;15.30;7.80;;;6.50;99.90;;;;;;5075963;28;20031;-66
2022/01/22 00:30:07;;;;;;;13.10;7.95;;;6.60;99.90;;;;;;5076519;28;20028;-66
2022/01/22 00:32:33;;;;;;;11.20;6.72;;;6.60;99.90;;;;;;5076727;28;20032;-66
2022/01/22 00:34:59;;;;;;;11.93;7.18;;;6.60;99.90;;;;;;5076622;28;20048;-66
2022/01/22 00:37:25;;;;;;;15.63;7.32;;;6.70;99.90;;;;;;5077085;28;20029;-66
2022/01/22 00:39:51;;;;;;;15.75;7.85;;;6.50;99.90;;;;;;5076681;28;20028;-65
2022/01/22 00:42:17;;;;;;;10.82;7.20;;;6.50;99.90;;;;;;5075998;28;20134;-69
2022/01/22 00:44:44;;;;;;;12.30;7.22;;;6.40;99.90;;;;;;5076549;28;20154;-67
2022/01/22 00:47:10;;;;;;;12.82;7.18;;;6.20;99.90;;;;;;5076128;28;20039;-67
2022/01/22 00:49:37;;;;;;;10.88;7.57;;;6.00;99.90;;;;;;5076807;28;20053;-67
2022/01/22 00:52:04;;;;;;;15.30;7.43;;;6.10;99.90;;;;;;5075668;28;20036;-67
2022/01/22 00:54:31;;;;;;;13.35;7.82;;;6.30;99.90;;;;;;5076119;28;20033;-66
2022/01/22 00:56:57;;;;;;;13.02;7.68;;;6.30;99.90;;;;;;5076745;28;20024;-67
2022/01/22 00:59:23;;;;;;;10.52;7.53;;;6.30;99.90;;;;;;5076715;28;20088;-65
2022/01/22 01:01:49;;;;;;;15.90;7.95;;;6.50;99.90;;;;;;5076700;28;20103;-65
2022/01/22 01:04:15;;;;;;;13.68;7.88;;;6.70;99.90;;;;;;5076553;28;20060;-66
2022/01/22 01:06:42;;;;;;;13.25;7.53;;;6.50;99.90;;;;;;5059265;28;20414;-66
2022/01/22 01:09:09;;;;;;;10.80;7.50;;;6.50;99.90;;;;;;5075911;28;20028;-66
2022/01/22 01:11:41;;;;;;;15.20;8.35;;;6.30;99.90;;;;;;5076228;28;20040;-67
2022/01/22 01:14:10;;;;;;;14.73;8.02;;;6.20;99.90;;;;;;5075832;28;20036;-66
2022/01/22 01:33:05;;;;;;;18.67;9.02;;;6.30;99.90;;;;;;5075509;28;20037;-66
2022/01/22 01:35:35;;;;;;;11.60;7.95;;;6.40;99.90;;;;;;5076153;28;20048;-67
2022/01/22 01:38:02;;;;;;;10.93;7.97;;;6.30;99.90;;;;;;5076169;28;20117;-67
2022/01/22 01:40:30;;;;;;;20.30;8.95;;;6.40;99.90;;;;;;5076556;28;20032;-67
2022/01/22 01:43:10;;;;;;;16.05;9.32;;;6.40;99.90;;;;;;5079315;28;20037;-67
2022/01/22 01:45:36;;;;;;;17.20;8.95;;;6.40;99.90;;;;;;5079361;28;20307;-67
2022/01/22 01:48:09;;;;;;;13.13;8.85;;;6.40;99.90;;;;;;5079160;28;20120;-66
2022/01/22 01:50:37;;;;;;;15.93;9.50;;;6.30;99.90;;;;;;5079094;28;20044;-67
2022/01/22 01:57:26;;;;;;;12.75;9.73;;;6.60;99.90;;;;;;5079010;28;20380;-66
2022/01/22 01:58:29;;;;;;;15.15;9.73;;;6.70;99.90;;;;;;5065594;28;20033;-67
2022/01/22 02:00:59;;;;;;;15.32;10.20;;;6.70;99.90;;;;;;5062552;28;20037;-66
2022/01/22 02:03:25;;;;;;;19.17;10.05;;;6.70;99.90;;;;;;5080023;28;20292;-67
2022/01/22 02:06:01;;;;;;;17.55;9.77;;;6.70;99.90;;;;;;5063714;28;20127;-67
2022/01/22 02:08:30;;;;;;;15.63;9.70;;;6.50;99.90;;;;;;5078710;28;20043;-67
2022/01/22 02:11:01;;;;;;;15.23;10.00;;;6.60;99.90;;;;;;5062601;28;20418;-67
2022/01/22 02:14:09;;;;;;;16.05;9.88;;;6.80;99.90;;;;;;5079298;28;20032;-67
2022/01/22 02:25:32;;;;;;;15.27;10.55;;;7.00;99.90;;;;;;5064874;28;20040;-67
2022/01/22 02:28:03;;;;;;;20.20;11.43;;;6.90;99.90;;;;;;5078451;28;20017;-67
2022/01/22 02:30:35;;;;;;;15.50;11.00;;;7.00;99.90;;;;;;5078452;28;20162;-67
2022/01/22 02:35:42;;;;;;;19.35;11.45;;;7.10;99.90;;;;;;5078109;28;20311;-66
2022/01/22 02:38:15;;;;;;;17.77;11.55;;;7.10;99.90;;;;;;5078225;28;20032;-67
2022/01/22 02:40:48;;;;;;;16.13;11.70;;;7.20;99.90;;;;;;5078200;28;20419;-66
2022/01/22 02:43:16;;;;;;;16.85;12.00;;;6.90;99.90;;;;;;5078928;28;20032;-67
2022/01/22 02:45:44;;;;;;;21.08;11.80;;;6.90;99.90;;;;;;5078181;28;20040;-66
2022/01/22 02:48:10;;;;;;;21.95;12.00;;;6.80;99.90;;;;;;5078883;28;20099;-67
2022/01/22 02:50:37;;;;;;;17.45;11.48;;;6.80;99.90;;;;;;5061347;28;20029;-67
2022/01/22 02:53:04;;;;;;;20.15;11.75;;;6.60;99.90;;;;;;5077294;28;20399;-67
2022/01/22 02:55:30;;;;;;;19.67;11.80;;;6.40;99.90;;;;;;5078052;28;20461;-67
2022/01/22 02:57:57;;;;;;;16.70;11.85;;;6.40;99.90;;;;;;5061407;28;20111;-66
2022/01/22 03:00:25;;;;;;;20.10;12.20;;;6.40;99.90;;;;;;5077924;28;20367;-67
2022/01/22 03:02:51;;;;;;;21.90;13.10;;;6.40;99.90;;;;;;5077930;28;20036;-67
2022/01/22 03:05:20;;;;;;;21.67;12.95;;;6.50;99.90;;;;;;5078044;28;20021;-66
2022/01/22 03:07:51;;;;;;;20.85;12.50;;;6.60;99.90;;;;;;5078536;28;20095;-68
2022/01/22 03:10:21;;;;;;;22.17;13.00;;;6.70;99.90;;;;;;5078365;28;20112;-67
2022/01/22 03:28:19;;;;;;;18.60;12.18;;;6.80;99.90;;;;;;5077283;28;20046;-66
2022/01/22 03:30:46;;;;;;;18.92;12.30;;;6.70;99.90;;;;;;5077976;28;20403;-67
2022/01/22 03:33:14;;;;;;;19.98;12.73;;;6.80;99.90;;;;;;5077144;28;20024;-66
2022/01/22 03:35:44;;;;;;;25.70;13.50;;;6.80;99.90;;;;;;5077173;28;20049;-67
2022/01/22 03:38:11;;;;;;;19.52;13.00;;;6.70;99.90;;;;;;5061270;28;20070;-66
2022/01/22 03:40:37;;;;;;;24.60;12.85;;;6.80;99.90;;;;;;5077828;28;20044;-66
2022/01/22 03:43:03;;;;;;;17.90;13.10;;;6.80;99.90;;;;;;5076938;28;20044;-66
2022/01/22 03:45:30;;;;;;;21.70;14.05;;;6.90;99.90;;;;;;5077089;28;20020;-66
2022/01/22 03:47:57;;;;;;;23.38;13.75;;;6.90;99.90;;;;;;5077019;28;20057;-67
2022/01/22 03:50:23;;;;;;;20.75;13.55;;;6.90;99.90;;;;;;5077628;28;20055;-67
2022/01/22 03:52:50;;;;;;;22.98;14.52;;;6.90;99.90;;;;;;5076745;28;20066;-66
2022/01/22 03:56:17;;;;;;;22.20;14.05;;;7.00;99.90;;;;;;5060287;28;20055;-67
2022/01/22 03:58:18;;;;;;;18.33;13.77;;;6.90;99.90;;;;;;5073123;28;20111;-67
2022/01/22 04:00:50;;;;;;;20.08;13.88;;;6.60;99.90;;;;;;5060601;28;20033;-67
2022/01/22 04:06:07;;;;;;;20.08;14.57;;;6.70;99.90;;;;;;5076783;28;20028;-67
2022/01/22 04:08:30;;;;;;;20.02;14.40;;;6.60;99.90;;;;;;5077378;28;20036;-67
2022/01/22 04:10:56;;;;;;;23.42;14.90;;;6.50;99.90;;;;;;5077495;28;20037;-67
2022/01/22 04:13:29;;;;;;;22.77;14.63;;;6.40;99.90;;;;;;5076529;28;20029;-66
2022/01/22 04:15:56;;;;;;;21.50;14.00;;;6.50;99.90;;;;;;5076476;28;20029;-66
2022/01/22 04:27:00;;;;;;;24.05;15.82;;;6.80;99.90;;;;;;5076316;28;20055;-66
2022/01/22 04:29:27;;;;;;;23.05;15.60;;;6.90;99.90;;;;;;5062728;28;20105;-66
2022/01/22 04:31:54;;;;;;;26.80;16.13;;;6.80;99.90;;;;;;5076828;28;20053;-66
2022/01/22 04:34:20;;;;;;;26.55;16.38;;;6.80;99.90;;;;;;5076728;28;20119;-66
2022/01/22 04:36:46;;;;;;;26.20;16.55;;;6.80;99.90;;;;;;5076098;28;20464;-66
2022/01/22 04:39:12;;;;;;;25.70;17.00;;;6.80;99.90;;;;;;5076126;28;20392;-66
2022/01/22 04:41:38;;;;;;;23.83;15.88;;;6.80;99.90;;;;;;5077382;28;20056;-66
2022/01/22 04:44:07;;;;;;;24.15;16.77;;;6.80;99.90;;;;;;5075975;28;20048;-66
2022/01/22 04:57:15;;;;;;;25.05;16.90;;;6.70;99.90;;;;;;5076021;28;20082;-67
2022/01/22 04:59:41;;;;;;;23.63;16.80;;;6.50;99.90;;;;;;5075791;28;20032;-67
2022/01/22 05:02:06;;;;;;;26.45;17.35;;;6.50;99.90;;;;;;5075839;28;20132;-66
2022/01/22 05:05:03;;;;;;;27.92;18.33;;;6.60;99.90;;;;;;5093330;28;20048;-66
2022/01/22 05:07:38;;;;;;;28.75;17.52;;;6.70;99.90;;;;;;5075736;28;20024;-66
2022/01/22 05:10:16;;;;;;;28.55;18.30;;;6.80;99.90;;;;;;5075891;28;20319;-65
2022/01/22 05:12:43;;;;;;;32.30;17.95;;;7.00;99.90;;;;;;5075658;28;20059;-66
2022/01/22 05:15:10;;;;;;;28.95;17.85;;;7.00;99.90;;;;;;5076672;28;20028;-66
2022/01/22 05:17:37;;;;;;;27.15;18.27;;;6.90;99.90;;;;;;5079807;28;20025;-66
2022/01/22 05:25:39;;;;;;;26.98;18.90;;;7.00;99.90;;;;;;5079675;28;20032;-67
2022/01/22 05:31:21;;;;;;;28.10;18.65;;;6.90;99.90;;;;;;5080073;28;19920;-67
2022/01/22 05:39:21;;;;;;;33.13;19.73;;;6.90;99.90;;;;;;5079279;28;20296;-66
2022/01/22 05:41:48;;;;;;;30.13;18.75;;;7.00;99.90;;;;;;5080109;28;20036;-66
2022/01/22 05:44:14;;;;;;;30.38;19.95;;;7.00;99.90;;;;;;5079056;28;20033;-67
2022/01/22 05:46:40;;;;;;;31.55;20.15;;;7.00;99.90;;;;;;5079135;28;20035;-66
2022/01/22 05:49:06;;;;;;;30.23;18.33;;;7.00;99.90;;;;;;5079073;28;20400;-66
2022/01/22 05:51:33;;;;;;;32.45;19.58;;;7.00;99.90;;;;;;5080318;28;20132;-67
2022/01/22 05:59:38;;;;;;;29.42;19.52;;;6.90;99.90;;;;;;5078919;28;20031;-67
2022/01/22 06:02:17;;;;;;;29.27;18.05;;;6.80;99.90;;;;;;5064524;28;20047;-66
2022/01/22 06:04:49;;;;;;;31.30;18.92;;;6.70;99.90;;;;;;5078738;28;20363;-67
2022/01/22 06:07:17;;;;;;;29.42;19.63;;;6.80;99.90;;;;;;5078733;28;20519;-66
2022/01/22 06:09:55;;;;;;;33.20;20.55;;;7.00;99.90;;;;;;5078754;28;20119;-66
2022/01/22 06:12:40;;;;;;;32.30;20.23;;;7.10;99.90;;;;;;5078605;28;20323;-66
2022/01/22 06:15:07;;;;;;;31.52;20.23;;;7.10;99.90;;;;;;5079544;28;20094;-66
2022/01/22 06:17:41;;;;;;;30.30;18.80;;;7.10;99.90;;;;;;5078756;28;20391;-66
2022/01/22 06:20:13;;;;;;;28.88;19.67;;;7.10;99.90;;;;;;5079152;28;20029;-66
2022/01/22 06:22:40;;;;;;;35.17;19.52;;;7.20;99.90;;;;;;5079575;28;20414;-66
2022/01/22 06:25:07;;;;;;;32.75;19.63;;;7.10;99.90;;;;;;5078405;28;20355;-66
2022/01/22 06:27:33;;;;;;;29.05;19.58;;;7.00;99.90;;;;;;5077169;28;20037;-66
2022/01/22 06:29:59;;;;;;;31.25;19.63;;;7.00;99.90;;;;;;5078370;28;20479;-66
2022/01/22 06:32:26;;;;;;;31.25;20.27;;;7.10;99.90;;;;;;5078249;28;20392;-67
2022/01/22 06:34:52;;;;;;;31.13;19.75;;;7.20;99.90;;;;;;5078003;28;20101;-66
2022/01/22 06:37:18;;;;;;;29.77;19.00;;;7.20;99.90;;;;;;5078149;28;20450;-66
2022/01/22 06:42:59;;;;;;;31.58;19.95;;;7.30;99.90;;;;;;5078621;28;20400;-66
2022/01/22 06:45:40;;;;;;;30.58;20.13;;;7.10;99.90;;;;;;5078080;28;20025;-67
2022/01/22 06:48:10;;;;;;;32.57;20.23;;;7.20;99.90;;;;;;5078082;28;20039;-67
2022/01/22 06:50:58;;;;;;;34.05;19.98;;;7.30;99.90;;;;;;5078522;28;20113;-61
2022/01/22 06:53:24;;;;;;;32.97;21.10;;;7.30;99.90;;;;;;5044699;28;20356;-59
2022/01/22 06:55:57;;;;;;;34.95;19.98;;;7.30;99.90;;;;;;5077775;28;20111;-60
2022/01/22 06:58:25;;;;;;;35.35;20.30;;;7.40;99.90;;;;;;5062023;28;20028;-61
2022/01/22 07:00:59;;;;;;;34.13;21.20;;;7.40;99.90;;;;;;5077870;28;20044;-61
2022/01/22 07:03:30;;;;;;;37.58;21.92;;;7.40;99.90;;;;;;5061811;28;20051;-61
2022/01/22 07:06:25;;;;;;;33.25;20.65;;;7.50;99.90;;;;;;5077694;28;20090;-60
2022/01/22 07:08:51;;;;;;;32.72;20.23;;;7.50;99.90;;;;;;5077730;28;20036;-61
2022/01/22 07:11:19;;;;;;;31.65;20.35;;;7.30;99.90;;;;;;5077702;28;20407;-61
2022/01/22 07:13:47;;;;;;;35.63;19.98;;;7.20;99.90;;;;;;5077114;28;20037;-60
2022/01/22 07:16:13;;;;;;;37.33;19.80;;;7.30;99.90;;;;;;5076838;28;20029;-61
2022/01/22 07:18:39;;;;;;;33.80;19.80;;;7.20;99.90;;;;;;5076957;28;20338;-61
2022/01/22 07:21:24;;;;;;;32.80;19.98;;;7.00;99.90;;;;;;5076706;28;20029;-61
2022/01/22 07:26:24;;;;;;;31.30;19.23;;;7.30;99.90;;;;;;5076865;28;20412;-61
2022/01/22 07:29:16;;;;;;;33.28;21.13;;;7.40;99.90;;;;;;5078172;28;20040;-58
2022/01/22 07:31:42;;;;;;;32.92;19.40;;;7.60;99.90;;;;;;5076624;28;20033;-59
2022/01/22 07:34:11;;;;;;;30.65;18.95;;;7.70;99.90;;;;;;5059974;28;20033;-61
2022/01/22 07:36:36;;;;;;;32.35;19.05;;;7.70;99.90;;;;;;5077160;28;20210;-61
2022/01/22 07:39:04;;;;;;;32.03;19.08;;;7.70;99.90;;;;;;5076189;28;20040;-62
2022/01/22 07:41:31;;;;;;;33.70;19.50;;;8.00;99.90;;;;;;5060862;28;20035;-61
2022/01/22 07:44:28;;;;;;;32.90;18.80;;;8.10;99.90;;;;;;5076556;28;20056;-62
2022/01/22 07:46:55;;;;;;;28.67;18.33;;;8.10;99.90;;;;;;5076239;28;20039;-62
2022/01/22 07:49:23;;;;;;;29.38;18.15;;;8.00;99.90;;;;;;5059725;28;20124;-62
2022/01/22 07:51:50;;;;;;;35.95;18.40;;;8.00;99.90;;;;;;5076481;28;20048;-61
2022/01/22 07:54:16;;;;;;;29.52;17.75;;;8.00;99.90;;;;;;5077029;28;20024;-59
2022/01/22 07:56:42;;;;;;;29.60;18.48;;;8.00;99.90;;;;;;5043063;28;20028;-63
2022/01/22 07:59:10;;;;;;;29.17;18.02;;;8.10;99.90;;;;;;5076059;28;20040;-60
2022/01/22 08:01:42;;;;;;;28.33;17.70;;;8.00;99.90;;;;;;5060217;28;20102;-61
2022/01/22 08:04:24;;;;;;;25.05;17.15;;;8.10;99.90;;;;;;5076892;28;20036;-61
2022/01/22 08:06:59;;;;;;;31.67;17.70;;;8.10;99.90;;;;;;5076643;28;20059;-60
2022/01/22 08:09:29;;;;;;;29.77;17.48;;;8.10;99.90;;;;;;5075921;28;20115;-61
2022/01/22 08:11:59;;;;;;;29.77;18.25;;;8.10;99.90;;;;;;5077031;28;20037;-61
2022/01/22 08:14:25;;;;;;;30.80;17.60;;;8.30;99.90;;;;;;5075725;28;20119;-61
2022/01/22 08:16:51;;;;;;;25.13;17.00;;;8.30;99.90;;;;;;5076450;28;20111;-62
2022/01/22 08:19:19;;;;;;;31.60;17.27;;;8.30;99.90;;;;;;5059585;28;20115;-60
2022/01/22 08:21:47;;;;;;;27.52;17.05;;;8.20;99.90;;;;;;5076348;28;20342;-60
2022/01/22 08:24:32;;;;;;;31.55;17.67;;;8.30;99.90;;;;;;5076205;28;20136;-60
2022/01/22 08:27:22;;;;;;;28.42;17.30;;;8.30;99.90;;;;;;5075944;28;20102;-61
2022/01/22 08:29:48;;;;;;;30.17;17.30;;;8.30;99.90;;;;;;5075556;28;20033;-61
2022/01/22 08:37:28;;;;;;;28.50;17.88;;;8.20;99.90;;;;;;5075609;28;20419;-61
2022/01/22 08:39:54;;;;;;;28.25;17.85;;;8.30;99.90;;;;;;5059126;28;20024;-61
2022/01/22 08:42:22;;;;;;;27.40;16.10;;;8.40;99.90;;;;;;5075357;28;20071;-61
2022/01/22 08:44:48;;;;;;;26.02;17.02;;;8.40;99.90;;;;;;5075376;28;20036;-61
2022/01/22 08:47:15;;;;;;;29.25;17.70;;;8.40;99.90;;;;;;5075144;28;20036;-60
2022/01/22 08:49:42;;;;;;;30.10;16.88;;;8.30;99.90;;;;;;5074694;28;20098;-60
2022/01/22 08:52:13;;;;;;;29.98;18.20;;;8.30;99.90;;;;;;5074841;28;20060;-61
2022/01/22 08:54:40;;;;;;;30.55;17.85;;;8.30;99.90;;;;;;5075295;28;20296;-60
2022/01/22 08:57:07;;;;;;;29.02;17.80;;;8.10;99.90;;;;;;5074911;28;20016;-61
2022/01/22 08:59:38;;;;;;;30.63;19.75;;;7.90;99.90;;;;;;5075215;28;20044;-61
2022/01/22 09:02:06;;;;;;;30.58;18.88;;;7.90;99.90;;;;;;5074951;28;20037;-61
2022/01/22 09:04:56;;;;;;;30.15;18.58;;;8.00;99.90;;;;;;5075690;28;20036;-60
2022/01/22 09:07:51;;;;;;;32.33;18.92;;;8.10;99.90;;;;;;5092634;28;20043;-62
2022/01/22 09:10:29;;;;;;;29.77;18.80;;;7.90;99.90;;;;;;5075328;28;20025;-59
2022/01/22 09:13:08;;;;;;;31.70;19.75;;;7.90;99.90;;;;;;5075392;28;20413;-59
2022/01/22 09:15:54;;;;;;;33.20;19.58;;;7.80;99.90;;;;;;5076686;28;20097;-61
2022/01/22 09:18:20;;;;;;;29.17;19.33;;;8.00;99.90;;;;;;5075286;28;20029;-60
2022/01/22 09:23:17;;;;;;;30.00;18.73;;;8.10;99.90;;;;;;5075169;28;20073;-60
2022/01/22 09:25:44;;;;;;;30.90;18.27;;;8.10;99.90;;;;;;5076705;28;20029;-62
2022/01/22 09:28:12;;;;;;;29.52;18.52;;;7.90;99.90;;;;;;5075217;28;20025;-60
2022/01/22 09:30:41;;;;;;;28.67;17.60;;;7.80;99.90;;;;;;5075366;28;20043;-61
2022/01/22 09:33:07;;;;;;;27.83;16.98;;;7.90;99.90;;;;;;5076302;28;20024;-61
2022/01/22 09:36:02;;;;;;;26.67;18.13;;;7.80;99.90;;;;;;5056897;28;20052;-62
2022/01/22 09:39:04;;;;;;;28.00;17.75;;;8.00;99.90;;;;;;5094725;28;20047;-62
2022/01/22 09:41:48;;;;;;;27.92;17.88;;;8.20;99.90;;;;;;5077418;28;20062;-61
2022/01/22 09:44:43;;;;;;;30.45;17.48;;;8.30;99.90;;;;;;5074613;28;20433;-61
2022/01/22 09:47:28;;;;;;;25.75;17.20;;;8.50;99.90;;;;;;5075493;28;20511;-61
2022/01/22 09:50:23;;;;;;;29.30;18.65;;;8.50;99.90;;;;;;5074929;28;20062;-60
2022/01/22 09:53:07;;;;;;;26.92;18.23;;;8.60;99.90;;;;;;5075715;28;20039;-61
2022/01/22 09:55:46;;;;;;;27.92;18.42;;;8.80;99.90;;;;;;5074964;28;20040;-61
2022/01/22 09:58:40;;;;;;;26.45;18.77;;;8.60;99.90;;;;;;5074976;28;20044;-63
2022/01/22 10:01:34;;;;;;;26.05;18.98;;;8.50;99.90;;;;;;5076962;28;20033;-62
2022/01/22 10:04:08;;;;;;;28.02;18.05;;;8.60;99.90;;;;;;5078529;28;20051;-62
2022/01/22 10:07:20;;;;;;;29.88;18.65;;;8.50;99.90;;;;;;5078498;28;20032;-61
2022/01/22 10:10:07;;;;;;;27.92;18.00;;;8.70;99.90;;;;;;5079028;28;20115;-62
2022/01/22 10:12:48;;;;;;;27.60;18.27;;;8.70;99.90;;;;;;5079507;28;20048;-61
2022/01/22 10:15:17;;;;;;;26.05;17.60;;;8.60;99.90;;;;;;5079352;28;20029;-62
2022/01/22 10:17:53;;;;;;;24.23;17.20;;;8.50;99.90;;;;;;5079170;28;20025;-61
2022/01/22 10:20:22;;;;;;;26.52;17.25;;;8.40;99.90;;;;;;5079508;28;20396;-61
2022/01/22 10:22:49;;;;;;;27.58;17.98;;;8.40;99.90;;;;;;5078160;28;20067;-61
2022/01/22 10:25:35;;;;;;;28.08;17.83;;;8.10;99.90;;;;;;5079605;28;20296;-61
2022/01/22 10:28:05;;;;;;;29.52;17.75;;;8.10;99.90;;;;;;5078926;28;20077;-61
2022/01/22 10:30:37;;;;;;;31.67;18.20;;;8.10;99.90;;;;;;5078044;28;20028;-61
2022/01/22 10:36:19;;;;;;;30.35;18.08;;;8.20;99.90;;;;;;5078048;28;20045;-61
2022/01/22 10:39:23;;;;;;;27.00;17.83;;;8.30;99.90;;;;;;5079231;28;20063;-62
2022/01/22 10:41:50;;;;;;;30.88;19.10;;;8.10;99.90;;;;;;5078864;28;20115;-62
2022/01/22 10:44:21;;;;;;;36.97;20.45;;;8.30;99.90;;;;;;5077736;28;20044;-63
2022/01/22 10:47:02;;;;;;;30.83;18.98;;;8.40;99.90;;;;;;5078979;28;20035;-61
2022/01/22 10:49:28;;;;;;;28.92;19.52;;;8.50;99.90;;;;;;5078684;28;20042;-62
2022/01/22 10:51:56;;;;;;;31.90;19.92;;;8.70;99.90;;;;;;5078636;28;20033;-62
2022/01/22 10:54:26;;;;;;;30.67;19.27;;;8.70;99.90;;;;;;5078895;28;20099;-62
2022/01/22 10:56:53;;;;;;;29.05;19.13;;;8.80;99.90;;;;;;5077880;28;20036;-62
2022/01/22 10:59:21;;;;;;;33.83;21.17;;;8.80;99.90;;;;;;5078408;28;20032;-62
2022/01/22 11:01:55;;;;;;;34.45;20.98;;;8.90;99.90;;;;;;5078300;28;20460;-62
2022/01/22 11:04:27;;;;;;;31.52;19.35;;;8.90;99.90;;;;;;5078307;28;20034;-62
2022/01/22 11:06:55;;;;;;;32.80;20.23;;;8.70;99.90;;;;;;5078308;28;20296;-62
2022/01/22 11:09:23;;;;;;;30.63;20.02;;;8.70;99.90;;;;;;5078121;28;20039;-63
2022/01/22 11:11:50;;;;;;;29.60;19.73;;;8.80;99.90;;;;;;5078173;28;20111;-62
2022/01/22 11:14:17;;;;;;;31.45;20.33;;;8.70;99.90;;;;;;5076795;28;20028;-61
2022/01/22 11:16:45;;;;;;;31.95;20.50;;;8.80;99.90;;;;;;5077191;28;20288;-62
2022/01/22 11:19:13;;;;;;;30.50;19.80;;;8.60;99.90;;;;;;5077863;28;20031;-62
2022/01/22 11:21:44;;;;;;;29.13;19.88;;;8.60;99.90;;;;;;5077552;28;20112;-62
2022/01/22 11:24:24;;;;;;;30.98;20.45;;;8.70;99.90;;;;;;5078040;28;20150;-61
2022/01/22 11:26:57;;;;;;;30.63;20.15;;;8.70;99.90;;;;;;5077843;28;20036;-62
2022/01/22 11:29:31;;;;;;;28.30;18.85;;;8.70;99.90;;;;;;5077148;28;20056;-61
2022/01/22 11:32:02;;;;;;;30.42;19.50;;;8.70;99.90;;;;;;5077846;28;20101;-61
2022/01/22 11:34:31;;;;;;;27.27;18.58;;;8.70;99.90;;;;;;5078185;28;20045;-62
2022/01/22 11:37:04;;;;;;;26.95;18.23;;;8.80;99.90;;;;;;5077650;28;20079;-61
2022/01/22 11:39:31;;;;;;;26.63;18.60;;;8.80;99.90;;;;;;5078358;28;20032;-61
2022/01/22 11:41:59;;;;;;;26.23;18.77;;;8.80;99.90;;;;;;5077893;28;20107;-62
2022/01/22 11:44:49;;;;;;;29.88;18.48;;;8.40;99.90;;;;;;5078193;28;20036;-61
2022/01/22 11:47:20;;;;;;;29.90;19.80;;;8.40;99.90;;;;;;5077632;28;20037;-62
2022/01/22 11:50:06;;;;;;;27.10;19.27;;;8.40;99.90;;;;;;5076975;28;20040;-62
2022/01/22 11:52:37;;;;;;;30.20;19.38;;;8.60;99.90;;;;;;5077446;28;20036;-62
2022/01/22 11:55:14;;;;;;;27.77;19.95;;;8.60;99.90;;;;;;5077596;28;20488;-63
2022/01/22 11:57:42;;;;;;;26.13;18.67;;;8.70;99.90;;;;;;5076559;28;20028;-64
2022/01/22 12:00:27;;;;;;;28.40;18.50;;;8.50;99.90;;;;;;5078203;28;20035;-63
2022/01/22 12:03:08;;;;;;;31.08;19.73;;;8.40;99.90;;;;;;5076456;28;20115;-62
2022/01/22 12:05:54;;;;;;;30.35;20.25;;;8.40;99.90;;;;;;5077290;28;20082;-61
2022/01/22 12:08:24;;;;;;;30.92;20.63;;;8.60;99.90;;;;;;5076782;28;20110;-62
2022/01/22 12:16:40;;;;;;;36.50;22.98;;;8.60;99.90;;;;;;5077188;28;20025;-63
2022/01/22 12:22:39;;;;;;;34.05;23.02;;;8.40;99.90;;;;;;5076060;28;20120;-62
2022/01/22 12:25:16;;;;;;;36.80;23.85;;;8.40;99.90;;;;;;5075200;28;20037;-62
2022/01/22 12:27:49;;;;;;;37.95;23.90;;;8.30;99.90;;;;;;5070901;28;20041;-62
2022/01/22 12:30:33;;;;;;;44.47;25.52;;;8.30;99.90;;;;;;5076924;28;20307;-63
2022/01/22 12:33:00;;;;;;;38.40;25.08;;;8.40;99.90;;;;;;5076537;28;20040;-61
2022/01/22 12:35:37;;;;;;;37.80;26.20;;;8.40;99.90;;;;;;5075535;28;20075;-62
2022/01/22 12:38:33;;;;;;;40.05;26.50;;;8.60;99.90;;;;;;5076676;28;20029;-62
2022/01/22 12:44:10;;;;;;;48.65;28.40;;;8.60;99.90;;;;;;5076703;28;20040;-61
2022/01/22 12:46:36;;;;;;;47.10;28.48;;;8.70;99.90;;;;;;5076047;28;20028;-61
2022/01/22 12:49:08;;;;;;;52.80;31.33;;;8.80;99.90;;;;;;5075990;28;20090;-60
2022/01/22 12:51:35;;;;;;;49.25;30.25;;;8.90;99.90;;;;;;5076503;28;20082;-62
2022/01/22 12:54:01;;;;;;;46.53;29.13;;;8.90;99.90;;;;;;5075905;28;20039;-62
2022/01/22 12:59:04;;;;;;;44.78;28.40;;;8.70;99.90;;;;;;5076962;28;20032;-62
2022/01/22 13:01:32;;;;;;;45.42;28.30;;;8.60;99.90;;;;;;5076704;28;20046;-62
2022/01/22 13:03:59;;;;;;;40.47;26.80;;;8.60;99.90;;;;;;5076769;28;20286;-62
2022/01/22 13:06:48;;;;;;;41.60;26.08;;;8.40;99.90;;;;;;5076360;28;20136;-62
2022/01/22 13:09:54;;;;;;;41.45;25.75;;;8.10;99.90;;;;;;5076342;28;20041;-61
2022/01/22 13:12:21;;;;;;;37.67;24.98;;;8.20;99.90;;;;;;5076332;28;20392;-62
2022/01/22 13:14:53;;;;;;;40.85;26.27;;;8.30;99.90;;;;;;5076567;28;20020;-61
2022/01/22 13:17:19;;;;;;;44.80;26.95;;;8.60;99.90;;;;;;5076846;28;20039;-62
2022/01/22 13:19:45;;;;;;;43.80;27.13;;;8.60;99.90;;;;;;5075769;28;20037;-62
2022/01/22 13:22:11;;;;;;;45.25;27.13;;;8.50;99.90;;;;;;5076187;28;20036;-62
2022/01/22 13:24:37;;;;;;;41.13;27.02;;;8.50;99.90;;;;;;5076478;28;20063;-61
2022/01/22 13:27:14;;;;;;;47.33;28.65;;;8.60;99.90;;;;;;5075209;28;20044;-63
2022/01/22 13:29:43;;;;;;;45.38;28.42;;;8.60;99.90;;;;;;5076421;28;20037;-63
2022/01/22 13:48:35;;;;;;;53.13;31.60;;;8.50;99.90;;;;;;5080115;28;20040;-59
2022/01/22 13:51:01;;;;;;;;;;;8.40;99.90;;;;;;5080563;28;20028;-59
2022/01/22 13:53:28;;;;;;;47.42;29.60;;;8.60;99.90;;;;;;5079872;28;19994;-60
2022/01/22 13:56:05;;;;;;;41.30;28.25;;;8.50;99.90;;;;;;5079133;28;20036;-58
2022/01/22 13:58:32;;;;;;;48.58;29.98;;;8.40;99.90;;;;;;5079950;28;20032;-59
2022/01/22 14:01:05;;;;;;;44.28;28.42;;;8.20;99.90;;;;;;5079889;28;20044;-59
2022/01/22 14:03:38;;;;;;;;;;;8.20;99.90;;;;;;5080235;28;20047;-59
2022/01/22 14:06:05;;;;;;;47.55;29.25;;;8.30;99.90;;;;;;5080079;28;19966;-60
2022/01/22 14:08:34;;;;;;;46.38;29.90;;;8.30;99.90;;;;;;5079664;28;20036;-59
2022/01/22 14:11:11;;;;;;;46.03;29.25;;;8.20;99.90;;;;;;5079626;28;20032;-59
2022/01/22 14:13:39;;;;;;;47.00;29.48;;;8.20;99.90;;;;;;5079806;28;20053;-59
2022/01/22 14:16:16;;;;;;;55.40;30.67;;;8.40;99.90;;;;;;5079490;28;20097;-60
2022/01/22 14:18:43;;;;;;;47.78;30.52;;;8.60;99.90;;;;;;5079406;28;20036;-58
2022/01/22 14:21:18;;;;;;;44.00;28.15;;;8.60;99.90;;;;;;5079893;28;20036;-59
2022/01/22 14:23:45;;;;;;;38.03;25.48;;;8.60;99.90;;;;;;5079268;28;20032;-60
2022/01/22 14:26:31;;;;;;;36.97;24.33;;;8.50;99.90;;;;;;5079584;28;20389;-59
2022/01/22 14:29:01;;;;;;;35.53;23.83;;;8.60;99.90;;;;;;5079296;28;20029;-59
2022/01/22 14:31:34;;;;;;;37.42;24.70;;;8.50;99.90;;;;;;5079040;28;20028;-59
2022/01/22 14:34:04;;;;;;;34.80;23.48;;;8.50;99.90;;;;;;5078235;28;20036;-59
2022/01/22 14:36:37;;;;;;;33.85;24.63;;;8.40;99.90;;;;;;5079096;28;20056;-59
2022/01/22 14:39:14;;;;;;;;;;;8.50;99.90;;;;;;5079723;28;20078;-59
2022/01/22 14:44:45;;;;;;;31.50;21.13;;;8.60;99.90;;;;;;5078990;28;20102;-61
2022/01/22 14:47:15;;;;;;;27.90;19.00;;;8.60;99.90;;;;;;5078741;28;20090;-62
2022/01/22 14:49:52;;;;;;;26.13;18.63;;;8.30;99.90;;;;;;5078561;28;20446;-60
2022/01/22 14:52:20;;;;;;;28.20;18.60;;;8.30;99.90;;;;;;5078790;28;20043;-60
2022/01/22 14:54:48;;;;;;;28.88;18.67;;;8.30;99.90;;;;;;5079423;28;20094;-66
2022/01/22 14:57:19;;;;;;;26.75;18.27;;;8.20;99.90;;;;;;5078722;28;20379;-63
2022/01/22 14:59:48;;;;;;;30.25;18.80;;;8.10;99.90;;;;;;5078905;28;20025;-63
2022/01/22 15:02:15;;;;;;;30.63;19.58;;;8.10;99.90;;;;;;5078628;28;20135;-64
2022/01/22 15:04:42;;;;;;;26.60;18.80;;;8.10;99.90;;;;;;5078888;28;20040;-62
2022/01/22 15:07:13;;;;;;;31.17;19.42;;;8.00;99.90;;;;;;5078684;28;20039;-61
2022/01/22 15:09:41;;;;;;;30.40;20.38;;;8.10;99.90;;;;;;5078682;28;20040;-64
2022/01/22 15:12:08;;;;;;;32.40;21.52;;;8.10;99.90;;;;;;5077729;28;20101;-63
2022/01/22 15:14:39;;;;;;;30.23;19.88;;;8.20;99.90;;;;;;5079046;28;20042;-64
2022/01/22 15:19:43;;;;;;;31.00;19.90;;;8.20;99.90;;;;;;5077731;28;20037;-63
2022/01/22 15:22:12;;;;;;;30.70;20.15;;;8.30;99.90;;;;;;5078713;28;20083;-64
2022/01/22 15:24:40;;;;;;;26.85;18.80;;;8.30;99.90;;;;;;5078854;28;20442;-66